Latest Weather Observations for Maryborough

IDQ60801

Issued at 11:35 pm EST Wednesday 16 April 2014 (issued every 30 minutes, with the page automatically refreshed every 10 minutes)

About weather observations | Map of weather stations | Latest weather observations for QLD | Other Formats
Station Details ID: 040126 Name: MARYBOROUGH Lat: -25.52 Lon: 152.72 Height: 10.28 m
Data from the previous 72 hours. | See also: Recent months at Maryborough
Date/Time
EST
Temp
°C
App
Temp
°C
Dew
Point
Rel
Hum
%
Delta-T
°C
Wind Press
QNH
hPa
Press
MSL
hPa
Rain
since 9 am
mm
Dir
 
Spd
km/h
Gust
km/h
Spd
kts
Gust
kts
16/11:30pm 18.3 19.7 16.5 89 1.1 E 4 7 2 4 1016.3 - 0.0
16/11:00pm 18.9 20.0 17.0 89 1.1 E 7 7 4 4 1016.2 - 0.0
16/10:30pm 18.9 20.2 17.2 90 1.0 E 6 9 3 5 1016.4 - 0.0
16/10:00pm 19.5 21.9 17.1 86 1.5 CALM 0 0 0 0 1016.4 - 0.0
16/09:30pm 20.3 22.1 17.5 84 1.7 E 4 6 2 3 1016.6 - 0.0
16/09:00pm 20.6 21.8 17.4 82 2.0 E 7 7 4 4 1016.4 1016.3 0.0
16/08:30pm 20.5 22.9 16.9 80 2.2 CALM 0 0 0 0 1016.1 - 0.0
16/08:00pm 21.0 23.1 17.2 79 2.3 E 2 6 1 3 1015.8 - 0.0
16/07:30pm 20.5 21.6 17.1 81 2.1 E 7 9 4 5 1015.5 - 0.0
16/07:00pm 21.9 23.3 16.4 71 3.3 E 4 6 2 3 1015.2 - 0.0
16/06:30pm 21.9 23.1 16.8 73 3.1 E 6 9 3 5 1014.9 - 0.0
16/06:00pm 22.2 22.9 16.0 68 3.7 E 7 11 4 6 1014.4 1014.3 0.0
16/05:30pm 22.4 22.1 15.5 65 4.1 ESE 11 15 6 8 1013.8 - 0.0
16/05:00pm 23.6 22.6 15.6 61 4.8 E 15 20 8 11 1013.2 - 0.0
16/04:30pm 24.6 22.7 15.2 55 5.6 ESE 19 26 10 14 1013.1 - 0.0
16/04:00pm 27.6 27.4 13.5 41 8.3 S 7 11 4 6 1012.7 - 0.0
16/03:30pm 27.8 26.8 13.3 40 8.6 S 11 17 6 9 1012.7 - 0.0
16/03:00pm 28.1 26.9 14.0 42 8.4 SSE 13 19 7 10 1012.8 1012.7 0.0
16/02:30pm 27.6 26.0 12.8 40 8.7 S 13 19 7 10 1013.1 - 0.0
16/02:00pm 27.6 26.0 13.9 43 8.2 S 15 24 8 13 1013.4 - 0.0
16/01:30pm 27.2 25.2 13.9 44 7.9 SW 17 24 9 13 1013.6 - 0.0
16/01:00pm 27.1 26.3 15.1 47 7.3 WSW 13 24 7 13 1014.0 - 0.0
16/12:30pm 26.3 24.7 12.7 43 7.9 SSW 13 19 7 10 1014.4 - 0.0
16/12:00pm 26.1 26.0 13.9 47 7.2 SE 7 13 4 7 1014.8 1014.7 0.0
16/11:30am 25.2 23.9 12.4 45 7.4 SSW 11 17 6 9 1015.3 - 0.0
16/11:00am 24.7 23.9 13.0 48 6.8 SW 9 13 5 7 1015.8 - 0.0
16/10:30am 24.7 24.1 13.6 50 6.5 SSE 9 17 5 9 1016.3 - 0.0
16/10:00am 24.0 22.6 13.5 52 6.1 SSW 13 19 7 10 1016.8 - 0.0
16/09:30am 23.1 22.0 14.4 58 5.1 S 13 17 7 9 1017.0 - 0.0
16/09:00am 22.2 21.0 14.1 60 4.7 S 13 17 7 9 1017.0 1016.9 0.2
16/08:30am 21.5 20.5 14.6 65 4.1 S 13 17 7 9 1016.9 - 0.2
16/08:00am 20.3 19.9 15.3 73 3.0 SSW 11 15 6 8 1016.7 - 0.2
16/07:30am 18.9 18.5 15.2 79 2.2 SW 11 15 6 8 1016.4 - 0.2
16/07:00am 17.4 17.7 15.0 86 1.4 SW 7 11 4 6 1016.1 - 0.2
16/06:30am 16.4 16.6 14.8 90 0.9 SW 7 7 4 4 1015.8 - 0.2
16/06:00am 15.8 16.0 14.2 90 0.9 SW 6 7 3 4 1015.3 1015.2 0.2
16/05:30am 16.1 15.8 14.5 90 0.9 SW 9 9 5 5 1015.0 - 0.2
16/05:00am 16.4 16.7 14.9 91 0.9 SSW 7 9 4 5 1014.9 - 0.2
16/04:30am 16.3 16.7 14.8 91 0.9 SSW 6 7 3 4 1014.7 - 0.2
16/04:00am 15.9 16.2 14.4 91 0.9 SSW 6 7 3 4 1014.6 - 0.2
16/03:30am 15.8 17.1 14.2 90 0.9 CALM 0 4 0 2 1014.6 - 0.2
16/03:00am 16.7 17.5 14.9 89 1.0 SSW 4 6 2 3 1014.7 1014.6 0.2
16/02:30am 17.1 17.4 15.1 88 1.2 SSW 7 9 4 5 1014.6 - 0.2
16/02:00am 16.7 17.0 14.5 87 1.3 S 6 9 3 5 1014.8 - 0.2
16/01:30am 17.5 17.8 15.1 86 1.4 S 7 9 4 5 1015.1 - 0.2
16/01:00am 17.4 17.8 15.2 87 1.3 S 7 9 4 5 1015.4 - 0.2
16/12:30am 17.7 17.3 15.3 86 1.4 S 11 13 6 7 1015.5 - 0.2
16/12:00am 17.9 17.5 15.3 85 1.5 S 11 15 6 8 1015.5 1015.4 0.2
 
Date/Time
EST
Temp
°C
App
Temp
°C
Dew
Point
Rel
Hum
%
Delta-T
°C
Wind Press
QNH
hPa
Press
MSL
hPa
Rain
since 9 am
mm
Dir
 
Spd
km/h
Gust
km/h
Spd
kts
Gust
kts
15/11:30pm 18.0 17.3 15.4 85 1.5 S 13 17 7 9 1015.5 - 0.2
15/11:00pm 18.7 17.8 15.8 83 1.7 SSW 15 19 8 10 1015.7 - 0.2
15/10:30pm 18.3 18.2 15.9 86 1.4 S 11 13 6 7 1015.7 - 0.2
15/10:00pm 18.3 18.5 15.7 85 1.5 S 9 13 5 7 1015.5 - 0.2
15/09:30pm 18.7 19.0 15.9 84 1.7 S 9 11 5 6 1015.6 - 0.2
15/09:00pm 19.0 19.6 15.9 82 1.8 SSE 7 7 4 4 1015.4 1015.3 0.2
15/08:30pm 19.4 20.0 15.9 80 2.1 SSE 7 9 4 5 1015.3 - 0.2
15/08:00pm 19.8 20.4 15.9 78 2.3 SE 7 11 4 6 1015.3 - 0.2
15/07:30pm 20.3 20.9 15.7 75 2.7 SSE 7 9 4 5 1015.2 - 0.2
15/07:00pm 20.7 20.9 15.7 73 3.0 SSE 9 15 5 8 1014.9 - 0.2
15/06:30pm 21.2 20.5 15.5 70 3.4 SSE 13 19 7 10 1014.6 - 0.2
15/06:00pm 21.7 21.2 15.8 69 3.5 SE 13 17 7 9 1014.3 1014.2 0.2
15/05:30pm 22.4 21.4 15.7 66 4.0 SE 15 22 8 12 1013.9 - 0.2
15/05:00pm 23.6 22.0 15.1 59 5.1 SE 17 22 9 12 1013.5 - 0.2
15/04:30pm 24.3 22.4 15.2 57 5.5 SSE 19 26 10 14 1013.2 - 0.2
15/04:00pm 25.0 23.1 15.3 55 5.8 SSE 19 28 10 15 1013.0 - 0.2
15/03:30pm 25.1 22.6 15.1 53 6.0 SSE 22 32 12 17 1012.8 - 0.2
15/03:00pm 25.2 23.5 15.8 56 5.7 SE 19 26 10 14 1012.8 1012.7 0.2
15/02:30pm 25.4 23.2 16.0 56 5.7 SSE 22 32 12 17 1012.8 - 0.2
15/02:00pm 24.8 21.6 16.2 58 5.3 ESE 28 37 15 20 1012.6 - 0.2
15/01:30pm 26.3 24.7 16.5 54 6.0 SSE 20 30 11 16 1012.7 - 0.2
15/01:00pm 25.6 22.6 16.7 58 5.5 SSE 28 39 15 21 1013.0 - 0.2
15/12:30pm 25.4 22.8 16.0 56 5.7 SSE 24 32 13 17 1013.3 - 0.2
15/12:00pm 25.9 24.7 17.0 58 5.5 SSE 19 30 10 16 1013.5 1013.4 0.2
15/11:30am 25.7 23.1 16.0 55 5.9 SE 24 32 13 17 1014.0 - 0.2
15/11:00am 25.5 23.6 16.6 58 5.5 SE 22 35 12 19 1014.4 - 0.2
15/10:30am 26.2 24.4 17.8 60 5.3 SSE 24 35 13 19 1014.7 - 0.0
15/10:00am 25.5 23.9 17.4 61 5.1 SE 22 33 12 18 1014.8 - 0.0
15/09:30am 24.6 22.4 16.8 62 4.8 SSE 24 35 13 19 1014.8 - 0.0
15/09:00am 23.5 21.5 16.5 65 4.3 S 22 35 12 19 1014.9 1014.8 5.0
15/08:30am 22.6 21.2 16.9 70 3.5 S 20 30 11 16 1014.8 - 5.0
15/08:00am 21.7 20.1 16.6 73 3.1 S 20 28 11 15 1014.6 - 5.0
15/07:30am 20.8 19.5 16.8 78 2.4 S 19 26 10 14 1014.7 - 5.0
15/07:00am 20.1 18.6 16.3 79 2.3 S 19 24 10 13 1014.3 - 5.0
15/06:30am 19.7 18.5 16.2 80 2.1 SSW 17 24 9 13 1014.2 - 5.0
15/06:00am 19.7 19.0 16.3 81 2.0 SW 15 20 8 11 1014.1 1014.0 5.0
15/05:30am 19.1 18.7 16.1 83 1.8 SW 13 19 7 10 1013.6 - 5.0
15/05:00am 19.0 18.5 16.0 83 1.8 SSW 13 19 7 10 1013.0 - 5.0
15/04:30am 19.1 18.3 16.1 83 1.8 SW 15 20 8 11 1012.7 - 5.0
15/04:00am 19.1 18.3 16.1 83 1.8 SSW 15 19 8 10 1012.3 - 5.0
15/03:30am 19.3 18.5 16.2 82 1.9 SW 15 19 8 10 1012.3 - 5.0
15/03:00am 19.2 18.8 16.2 83 1.8 SSW 13 17 7 9 1012.1 1012.0 5.0
15/02:30am 19.6 19.2 16.3 81 2.0 SSW 13 19 7 10 1012.3 - 5.0
15/02:00am 19.9 18.7 16.2 79 2.2 SSW 17 22 9 12 1012.2 - 5.0
15/01:30am 20.0 18.8 16.2 79 2.3 SSW 17 20 9 11 1012.2 - 5.0
15/01:00am 20.4 19.9 16.0 76 2.6 SW 13 19 7 10 1012.4 - 5.0
15/12:30am 20.6 20.2 16.2 76 2.6 SW 13 17 7 9 1012.4 - 5.0
15/12:00am 20.3 19.9 16.1 77 2.5 SW 13 17 7 9 1012.3 1012.2 5.0
 
Date/Time
EST
Temp
°C
App
Temp
°C
Dew
Point
Rel
Hum
%
Delta-T
°C
Wind Press
QNH
hPa
Press
MSL
hPa
Rain
since 9 am
mm
Dir
 
Spd
km/h
Gust
km/h
Spd
kts
Gust
kts
14/11:30pm 20.9 20.5 16.3 75 2.8 SSW 13 17 7 9 1012.2 - 5.0
14/11:00pm 21.4 20.3 16.4 73 3.0 S 17 22 9 12 1012.2 - 5.0
14/10:30pm 21.2 20.0 16.2 73 3.0 S 17 26 9 14 1012.2 - 5.0
14/10:00pm 21.6 20.0 16.6 73 3.0 SSE 20 28 11 15 1012.3 - 5.0
14/09:30pm 21.8 20.6 17.0 74 2.9 S 19 24 10 13 1012.6 - 5.0
14/09:00pm 22.0 20.7 17.2 74 2.9 S 20 30 11 16 1012.8 1012.7 5.0
14/08:30pm 22.0 19.9 17.2 74 2.9 S 24 37 13 20 1012.3 - 5.0
14/08:00pm 22.1 20.0 17.2 74 3.0 S 24 32 13 17 1012.0 - 5.0
14/07:30pm 21.6 20.6 18.0 80 2.2 S 20 33 11 18 1011.3 - 5.0
14/07:00pm 22.2 20.4 17.8 76 2.7 S 24 32 13 17 1010.9 - 5.0
14/06:30pm 22.0 20.0 18.2 79 2.4 S 26 39 14 21 1010.3 - 5.0
14/06:00pm 22.1 20.2 18.5 80 2.3 S 26 35 14 19 1009.8 1009.7 5.0
14/05:30pm 21.9 20.3 18.3 80 2.2 S 24 35 13 19 1009.3 - 5.0
14/05:00pm 21.6 20.3 19.0 85 1.6 S 24 35 13 19 1009.1 - 5.0
14/04:53pm 21.5 19.4 18.9 85 1.6 SSE 28 46 15 25 1009.0 - 5.0
14/04:30pm 21.9 20.2 18.9 83 1.9 S 26 39 14 21 1008.4 - 5.0
14/04:06pm 21.6 19.7 19.3 87 1.5 S 28 39 15 21 1008.2 - 5.0
14/04:00pm 21.4 19.9 19.5 89 1.2 S 26 39 14 21 1008.2 - 5.0
14/03:39pm 21.7 19.8 19.4 87 1.5 S 28 39 15 21 1007.8 - 4.8
14/03:30pm 22.3 22.0 19.5 84 1.8 S 20 33 11 18 1007.7 - 4.6
14/03:00pm 22.2 20.5 19.7 86 1.6 SSE 28 54 15 29 1007.5 1007.4 4.6
14/02:58pm 22.1 20.3 19.6 86 1.6 SSE 28 54 15 29 1007.6 - 4.6
14/02:30pm 22.1 21.7 20.2 89 1.2 S 22 32 12 17 1007.5 - 4.6
14/02:26pm 22.0 21.7 20.3 90 1.1 S 22 32 12 17 1007.5 - 4.6
14/02:00pm 21.8 20.9 19.9 89 1.2 SSE 24 39 13 21 1007.6 - 3.6
14/01:58pm 21.9 20.7 20.0 89 1.2 SSE 26 39 14 21 1007.6 - 3.6
14/01:30pm 22.9 21.2 19.7 82 2.1 SSE 28 48 15 26 1007.5 - 3.6
14/01:29pm 22.8 21.0 19.6 82 2.0 SSE 28 48 15 26 1007.5 - 3.6
14/01:17pm 22.7 20.6 19.7 83 1.9 SSE 30 44 16 24 1007.5 - 3.6
14/01:08pm 22.3 20.7 20.0 87 1.5 SSE 28 44 15 24 1007.7 - 3.6
14/01:00pm 21.9 20.2 19.8 88 1.3 SSE 28 46 15 25 1007.7 - 3.2
14/12:57pm 22.2 20.6 20.1 88 1.4 SSE 28 46 15 25 1007.7 - 3.2
14/12:56pm 22.3 20.8 20.2 88 1.4 SSE 28 46 15 25 1007.7 - 3.2
14/12:54pm 22.4 21.2 20.1 87 1.5 SSE 26 46 14 25 1007.7 - 3.2
14/12:45pm 22.4 21.2 20.9 91 1.0 SSE 28 44 15 24 1007.9 - 3.2
14/12:30pm 22.1 20.9 20.0 88 1.3 SSE 26 37 14 20 1008.0 - 3.2
14/12:14pm 22.4 20.9 20.3 88 1.4 SSE 28 44 15 24 1008.2 - 3.2
14/12:10pm 22.4 21.2 20.1 87 1.5 SSE 26 41 14 22 1008.2 - 3.2
14/12:05pm 22.6 21.6 20.5 88 1.4 SSE 26 39 14 21 1008.2 - 3.2
14/12:00pm 22.7 21.4 20.6 88 1.4 SSE 28 39 15 21 1008.3 1008.2 3.2
14/11:46am 22.3 20.4 20.2 88 1.4 SSE 30 43 16 23 1008.4 - 3.2
14/11:30am 22.4 20.3 19.8 85 1.7 SSE 30 44 16 24 1008.6 - 3.2
14/11:21am 22.6 20.9 19.9 85 1.7 SSE 28 44 15 24 1008.7 - 3.2
14/11:06am 22.2 21.4 20.8 92 0.9 SSE 26 39 14 21 1008.9 - 3.0
14/11:00am 22.0 21.1 20.6 92 0.9 SSE 26 39 14 21 1009.0 - 3.0
14/10:30am 21.9 21.3 20.5 92 0.9 SSE 24 33 13 18 1009.7 - 2.6
14/10:27am 21.9 21.3 20.5 92 0.9 SSE 24 33 13 18 1009.7 - 2.6
14/10:22am 22.1 21.2 20.7 92 0.9 SSE 26 35 14 19 1009.6 - 2.6
14/10:00am 21.4 21.5 20.0 92 0.9 SSE 19 30 10 16 1009.8 - 2.2
14/09:58am 21.5 22.0 20.1 92 0.9 SSE 17 30 9 16 1009.8 - 2.0
14/09:52am 22.0 23.9 20.6 92 0.9 S 11 19 6 10 1009.8 - 0.8
14/09:30am 22.8 24.4 20.7 88 1.4 SE 13 22 7 12 1009.8 - 0.2
14/09:00am 22.7 24.8 21.0 90 1.1 SSE 11 19 6 10 1010.0 1009.9 33.4
14/08:30am 22.1 23.8 20.9 93 0.8 SSE 13 20 7 11 1009.9 - 33.4
14/08:00am 21.8 23.1 20.8 94 0.6 SSE 15 22 8 12 1009.8 - 33.4
14/07:30am 21.4 22.9 20.6 95 0.5 SSE 13 19 7 10 1009.7 - 33.2
14/07:00am 20.9 22.2 20.1 95 0.5 S 13 17 7 9 1009.8 - 33.2
14/06:30am 20.7 22.7 19.9 95 0.5 ESE 9 11 5 6 1010.0 - 32.8
14/06:00am 20.5 22.7 19.5 94 0.6 ESE 7 9 4 5 1009.8 1009.7 32.0
14/05:30am 20.5 23.9 19.3 93 0.8 CALM 0 0 0 0 1009.9 - 30.6
14/05:00am 20.5 23.8 19.2 92 0.8 CALM 0 0 0 0 1009.8 - 30.0
14/04:30am 20.3 22.3 18.8 91 0.9 ESE 6 7 3 4 1009.6 - 29.8
14/04:00am 20.4 22.3 18.9 91 0.9 ESE 7 9 4 5 1010.0 - 29.6
14/03:30am 20.5 22.2 18.4 88 1.3 ESE 7 9 4 5 1010.2 - 29.6
14/03:00am 21.0 22.1 18.8 87 1.4 E 11 15 6 8 1010.4 1010.3 29.6
14/02:30am 20.7 22.0 19.2 91 0.9 E 11 17 6 9 1010.0 - 29.6
14/02:00am 20.5 21.8 19.2 92 0.8 S 11 13 6 7 1010.3 - 29.6
14/01:30am 20.7 22.8 19.4 92 0.8 SE 7 11 4 6 1010.8 - 29.6
14/01:00am 20.6 22.6 19.9 96 0.4 E 9 13 5 7 1010.8 - 29.6
14/12:30am 20.5 22.8 19.8 96 0.4 E 7 11 4 6 1011.5 - 29.6
14/12:00am 20.6 22.6 19.9 96 0.4 SSE 9 13 5 7 1011.9 1011.8 29.4

Other Formats:

Comma delimited format used in spreadsheet applications
http://www.bom.gov.au/fwo/IDQ60801/IDQ60801.94567.axf

JavaScript Object Notation format (JSON) in row-major order
http://www.bom.gov.au/fwo/IDQ60801/IDQ60801.94567.json